sensor_id;sensor_type;location;lat;lon;timestamp;temperature;humidity
66373;SHT30;53168;51.146;17.120;2024-01-27T00:02:00;5.79;71.09
66373;SHT30;53168;51.146;17.120;2024-01-27T00:04:40;5.79;71.07
66373;SHT30;53168;51.146;17.120;2024-01-27T00:07:19;5.80;70.92
66373;SHT30;53168;51.146;17.120;2024-01-27T00:09:55;5.82;70.88
66373;SHT30;53168;51.146;17.120;2024-01-27T00:12:32;5.84;70.91
66373;SHT30;53168;51.146;17.120;2024-01-27T00:15:09;5.85;71.07
66373;SHT30;53168;51.146;17.120;2024-01-27T00:17:45;5.86;70.91
66373;SHT30;53168;51.146;17.120;2024-01-27T00:20:20;5.85;70.77
66373;SHT30;53168;51.146;17.120;2024-01-27T00:22:56;5.87;70.70
66373;SHT30;53168;51.146;17.120;2024-01-27T00:25:31;5.87;70.94
66373;SHT30;53168;51.146;17.120;2024-01-27T00:28:06;5.89;70.68
66373;SHT30;53168;51.146;17.120;2024-01-27T00:30:41;5.91;70.51
66373;SHT30;53168;51.146;17.120;2024-01-27T00:33:15;5.92;70.71
66373;SHT30;53168;51.146;17.120;2024-01-27T00:35:50;5.90;70.70
66373;SHT30;53168;51.146;17.120;2024-01-27T00:38:27;5.89;70.54
66373;SHT30;53168;51.146;17.120;2024-01-27T00:41:03;5.89;70.41
66373;SHT30;53168;51.146;17.120;2024-01-27T00:43:40;5.89;70.34
66373;SHT30;53168;51.146;17.120;2024-01-27T00:46:14;5.89;70.40
66373;SHT30;53168;51.146;17.120;2024-01-27T00:48:49;5.89;70.28
66373;SHT30;53168;51.146;17.120;2024-01-27T00:51:26;5.89;70.12
66373;SHT30;53168;51.146;17.120;2024-01-27T00:54:06;5.88;70.11
66373;SHT30;53168;51.146;17.120;2024-01-27T00:56:42;5.88;69.95
66373;SHT30;53168;51.146;17.120;2024-01-27T00:59:16;5.87;70.01
66373;SHT30;53168;51.146;17.120;2024-01-27T01:01:52;5.88;69.77
66373;SHT30;53168;51.146;17.120;2024-01-27T01:04:28;5.84;69.59
66373;SHT30;53168;51.146;17.120;2024-01-27T01:07:04;5.84;69.76
66373;SHT30;53168;51.146;17.120;2024-01-27T01:09:41;5.82;69.74
66373;SHT30;53168;51.146;17.120;2024-01-27T01:12:15;5.80;69.94
66373;SHT30;53168;51.146;17.120;2024-01-27T01:14:52;5.80;69.75
66373;SHT30;53168;51.146;17.120;2024-01-27T01:17:27;5.79;69.83
66373;SHT30;53168;51.146;17.120;2024-01-27T01:20:06;5.78;69.87
66373;SHT30;53168;51.146;17.120;2024-01-27T01:22:43;5.76;69.90
66373;SHT30;53168;51.146;17.120;2024-01-27T01:25:18;5.74;69.84
66373;SHT30;53168;51.146;17.120;2024-01-27T01:27:53;5.74;69.51
66373;SHT30;53168;51.146;17.120;2024-01-27T01:30:28;5.74;69.69
66373;SHT30;53168;51.146;17.120;2024-01-27T01:33:04;5.72;69.63
66373;SHT30;53168;51.146;17.120;2024-01-27T01:35:39;5.71;69.67
66373;SHT30;53168;51.146;17.120;2024-01-27T01:38:14;5.68;69.66
66373;SHT30;53168;51.146;17.120;2024-01-27T01:40:49;5.67;69.72
66373;SHT30;53168;51.146;17.120;2024-01-27T01:43:23;5.63;69.83
66373;SHT30;53168;51.146;17.120;2024-01-27T01:45:59;5.58;69.88
66373;SHT30;53168;51.146;17.120;2024-01-27T01:48:34;5.54;69.77
66373;SHT30;53168;51.146;17.120;2024-01-27T01:51:10;5.50;69.58
66373;SHT30;53168;51.146;17.120;2024-01-27T01:53:51;5.46;69.42
66373;SHT30;53168;51.146;17.120;2024-01-27T01:56:50;5.44;69.50
66373;SHT30;53168;51.146;17.120;2024-01-27T01:59:26;5.43;69.59
66373;SHT30;53168;51.146;17.120;2024-01-27T02:02:01;5.42;69.55
66373;SHT30;53168;51.146;17.120;2024-01-27T02:04:42;5.37;69.53
66373;SHT30;53168;51.146;17.120;2024-01-27T02:07:17;5.31;69.69
66373;SHT30;53168;51.146;17.120;2024-01-27T02:09:52;5.25;69.70
66373;SHT30;53168;51.146;17.120;2024-01-27T02:12:28;5.20;69.84
66373;SHT30;53168;51.146;17.120;2024-01-27T02:15:02;5.16;69.79
66373;SHT30;53168;51.146;17.120;2024-01-27T02:17:44;5.13;69.67
66373;SHT30;53168;51.146;17.120;2024-01-27T02:20:21;5.11;69.68
66373;SHT30;53168;51.146;17.120;2024-01-27T02:22:56;5.07;69.64
66373;SHT30;53168;51.146;17.120;2024-01-27T02:25:30;5.07;69.47
66373;SHT30;53168;51.146;17.120;2024-01-27T02:28:08;5.09;69.34
66373;SHT30;53168;51.146;17.120;2024-01-27T02:30:43;5.12;69.35
66373;SHT30;53168;51.146;17.120;2024-01-27T02:33:18;5.12;69.40
66373;SHT30;53168;51.146;17.120;2024-01-27T02:35:53;5.10;69.32
66373;SHT30;53168;51.146;17.120;2024-01-27T02:38:29;5.11;69.20
66373;SHT30;53168;51.146;17.120;2024-01-27T02:41:05;5.13;69.20
66373;SHT30;53168;51.146;17.120;2024-01-27T02:43:42;5.13;69.12
66373;SHT30;53168;51.146;17.120;2024-01-27T02:46:16;5.17;68.87
66373;SHT30;53168;51.146;17.120;2024-01-27T02:48:54;5.20;68.84
66373;SHT30;53168;51.146;17.120;2024-01-27T02:51:29;5.21;68.83
66373;SHT30;53168;51.146;17.120;2024-01-27T02:54:06;5.23;68.88
66373;SHT30;53168;51.146;17.120;2024-01-27T02:56:42;5.24;68.83
66373;SHT30;53168;51.146;17.120;2024-01-27T02:59:19;5.28;68.63
66373;SHT30;53168;51.146;17.120;2024-01-27T03:01:54;5.31;68.52
66373;SHT30;53168;51.146;17.120;2024-01-27T03:04:30;5.33;68.34
66373;SHT30;53168;51.146;17.120;2024-01-27T03:07:05;5.36;68.15
66373;SHT30;53168;51.146;17.120;2024-01-27T03:09:40;5.38;68.12
66373;SHT30;53168;51.146;17.120;2024-01-27T03:12:15;5.40;67.93
66373;SHT30;53168;51.146;17.120;2024-01-27T03:14:51;5.41;67.81
66373;SHT30;53168;51.146;17.120;2024-01-27T03:17:26;5.42;67.84
66373;SHT30;53168;51.146;17.120;2024-01-27T03:20:01;5.42;67.68
66373;SHT30;53168;51.146;17.120;2024-01-27T03:22:36;5.42;67.60
66373;SHT30;53168;51.146;17.120;2024-01-27T03:25:13;5.43;67.50
66373;SHT30;53168;51.146;17.120;2024-01-27T03:27:47;5.43;67.57
66373;SHT30;53168;51.146;17.120;2024-01-27T03:30:23;5.43;67.50
66373;SHT30;53168;51.146;17.120;2024-01-27T03:32:58;5.43;67.57
66373;SHT30;53168;51.146;17.120;2024-01-27T03:35:34;5.43;67.27
66373;SHT30;53168;51.146;17.120;2024-01-27T03:38:09;5.41;67.38
66373;SHT30;53168;51.146;17.120;2024-01-27T03:40:44;5.41;67.07
66373;SHT30;53168;51.146;17.120;2024-01-27T03:43:20;5.41;66.97
66373;SHT30;53168;51.146;17.120;2024-01-27T03:45:55;5.42;66.80
66373;SHT30;53168;51.146;17.120;2024-01-27T03:48:30;5.41;66.94
66373;SHT30;53168;51.146;17.120;2024-01-27T03:51:08;5.39;67.06
66373;SHT30;53168;51.146;17.120;2024-01-27T03:53:43;5.38;66.88
66373;SHT30;53168;51.146;17.120;2024-01-27T03:56:18;5.37;66.86
66373;SHT30;53168;51.146;17.120;2024-01-27T03:58:53;5.35;66.88
66373;SHT30;53168;51.146;17.120;2024-01-27T04:01:28;5.34;66.99
66373;SHT30;53168;51.146;17.120;2024-01-27T04:04:03;5.33;66.99
66373;SHT30;53168;51.146;17.120;2024-01-27T04:06:42;5.32;66.88
66373;SHT30;53168;51.146;17.120;2024-01-27T04:09:17;5.32;66.76
66373;SHT30;53168;51.146;17.120;2024-01-27T04:11:52;5.32;66.61
66373;SHT30;53168;51.146;17.120;2024-01-27T04:14:29;5.31;66.59
66373;SHT30;53168;51.146;17.120;2024-01-27T04:17:06;5.31;66.57
66373;SHT30;53168;51.146;17.120;2024-01-27T04:19:40;5.31;66.57
66373;SHT30;53168;51.146;17.120;2024-01-27T04:22:15;5.29;66.35
66373;SHT30;53168;51.146;17.120;2024-01-27T04:24:50;5.28;66.36
66373;SHT30;53168;51.146;17.120;2024-01-27T04:27:29;5.25;66.29
66373;SHT30;53168;51.146;17.120;2024-01-27T04:30:06;5.23;66.25
66373;SHT30;53168;51.146;17.120;2024-01-27T04:32:43;5.21;66.17
66373;SHT30;53168;51.146;17.120;2024-01-27T04:35:21;5.19;66.28
66373;SHT30;53168;51.146;17.120;2024-01-27T04:37:56;5.16;66.41
66373;SHT30;53168;51.146;17.120;2024-01-27T04:40:32;5.13;66.36
66373;SHT30;53168;51.146;17.120;2024-01-27T04:43:07;5.11;66.43
66373;SHT30;53168;51.146;17.120;2024-01-27T04:45:42;5.11;66.46
66373;SHT30;53168;51.146;17.120;2024-01-27T04:48:16;5.12;66.57
66373;SHT30;53168;51.146;17.120;2024-01-27T04:50:51;5.12;66.28
66373;SHT30;53168;51.146;17.120;2024-01-27T04:53:27;5.14;66.18
66373;SHT30;53168;51.146;17.120;2024-01-27T04:56:03;5.14;66.20
66373;SHT30;53168;51.146;17.120;2024-01-27T04:58:39;5.15;66.24
66373;SHT30;53168;51.146;17.120;2024-01-27T05:01:16;5.14;66.29
66373;SHT30;53168;51.146;17.120;2024-01-27T05:03:51;5.14;66.25
66373;SHT30;53168;51.146;17.120;2024-01-27T05:06:25;5.13;66.16
66373;SHT30;53168;51.146;17.120;2024-01-27T05:09:00;5.12;65.95
66373;SHT30;53168;51.146;17.120;2024-01-27T05:11:36;5.14;65.86
66373;SHT30;53168;51.146;17.120;2024-01-27T05:14:11;5.15;65.81
66373;SHT30;53168;51.146;17.120;2024-01-27T05:16:46;5.14;65.97
66373;SHT30;53168;51.146;17.120;2024-01-27T05:19:20;5.13;65.96
66373;SHT30;53168;51.146;17.120;2024-01-27T05:21:56;5.13;66.02
66373;SHT30;53168;51.146;17.120;2024-01-27T05:24:31;5.13;65.89
66373;SHT30;53168;51.146;17.120;2024-01-27T05:27:07;5.13;65.84
66373;SHT30;53168;51.146;17.120;2024-01-27T05:29:41;5.12;65.95
66373;SHT30;53168;51.146;17.120;2024-01-27T05:32:16;5.11;65.98
66373;SHT30;53168;51.146;17.120;2024-01-27T05:34:53;5.07;66.02
66373;SHT30;53168;51.146;17.120;2024-01-27T05:37:28;5.05;66.11
66373;SHT30;53168;51.146;17.120;2024-01-27T05:40:03;5.02;66.20
66373;SHT30;53168;51.146;17.120;2024-01-27T05:42:41;5.00;66.21
66373;SHT30;53168;51.146;17.120;2024-01-27T05:45:17;4.98;66.30
66373;SHT30;53168;51.146;17.120;2024-01-27T05:47:52;4.97;66.24
66373;SHT30;53168;51.146;17.120;2024-01-27T05:50:31;4.94;66.30
66373;SHT30;53168;51.146;17.120;2024-01-27T05:53:07;4.91;66.17
66373;SHT30;53168;51.146;17.120;2024-01-27T05:55:42;4.90;66.19
66373;SHT30;53168;51.146;17.120;2024-01-27T05:58:20;4.88;66.21
66373;SHT30;53168;51.146;17.120;2024-01-27T06:00:55;4.85;66.35
66373;SHT30;53168;51.146;17.120;2024-01-27T06:03:31;4.83;66.36
66373;SHT30;53168;51.146;17.120;2024-01-27T06:06:07;4.81;66.51
66373;SHT30;53168;51.146;17.120;2024-01-27T06:08:43;4.79;66.59
66373;SHT30;53168;51.146;17.120;2024-01-27T06:11:26;4.79;66.69
66373;SHT30;53168;51.146;17.120;2024-01-27T06:14:03;4.76;66.75
66373;SHT30;53168;51.146;17.120;2024-01-27T06:16:39;4.72;66.84
66373;SHT30;53168;51.146;17.120;2024-01-27T06:19:14;4.68;66.94
66373;SHT30;53168;51.146;17.120;2024-01-27T06:21:49;4.68;66.90
66373;SHT30;53168;51.146;17.120;2024-01-27T06:25:51;4.72;67.00
66373;SHT30;53168;51.146;17.120;2024-01-27T06:28:31;4.74;67.09
66373;SHT30;53168;51.146;17.120;2024-01-27T06:31:06;4.73;67.00
66373;SHT30;53168;51.146;17.120;2024-01-27T06:33:41;4.72;67.05
66373;SHT30;53168;51.146;17.120;2024-01-27T06:36:16;4.73;67.05
66373;SHT30;53168;51.146;17.120;2024-01-27T06:38:52;4.71;67.11
66373;SHT30;53168;51.146;17.120;2024-01-27T06:41:28;4.68;67.20
66373;SHT30;53168;51.146;17.120;2024-01-27T06:44:04;4.69;67.30
66373;SHT30;53168;51.146;17.120;2024-01-27T06:46:39;4.68;67.25
66373;SHT30;53168;51.146;17.120;2024-01-27T06:49:14;4.66;67.26
66373;SHT30;53168;51.146;17.120;2024-01-27T06:51:49;4.65;67.30
66373;SHT30;53168;51.146;17.120;2024-01-27T06:54:23;4.65;67.31
66373;SHT30;53168;51.146;17.120;2024-01-27T06:57:00;4.65;67.39
66373;SHT30;53168;51.146;17.120;2024-01-27T06:59:36;4.66;67.43
66373;SHT30;53168;51.146;17.120;2024-01-27T07:02:13;4.65;67.50
66373;SHT30;53168;51.146;17.120;2024-01-27T07:04:47;4.68;67.55
66373;SHT30;53168;51.146;17.120;2024-01-27T07:07:26;4.68;67.57
66373;SHT30;53168;51.146;17.120;2024-01-27T07:10:05;4.70;67.59
66373;SHT30;53168;51.146;17.120;2024-01-27T07:12:40;4.70;67.62
66373;SHT30;53168;51.146;17.120;2024-01-27T07:15:15;4.70;67.60
66373;SHT30;53168;51.146;17.120;2024-01-27T07:19:02;4.71;67.68
66373;SHT30;53168;51.146;17.120;2024-01-27T07:21:37;4.74;67.57
66373;SHT30;53168;51.146;17.120;2024-01-27T07:24:12;4.76;67.60
66373;SHT30;53168;51.146;17.120;2024-01-27T07:26:48;4.78;67.60
66373;SHT30;53168;51.146;17.120;2024-01-27T07:29:26;4.80;67.63
66373;SHT30;53168;51.146;17.120;2024-01-27T07:32:04;4.82;67.61
66373;SHT30;53168;51.146;17.120;2024-01-27T07:34:45;4.81;67.69
66373;SHT30;53168;51.146;17.120;2024-01-27T07:37:21;4.81;67.72
66373;SHT30;53168;51.146;17.120;2024-01-27T07:39:58;4.82;67.77
66373;SHT30;53168;51.146;17.120;2024-01-27T07:42:36;4.87;67.65
66373;SHT30;53168;51.146;17.120;2024-01-27T07:45:12;4.90;67.78
66373;SHT30;53168;51.146;17.120;2024-01-27T07:47:47;4.93;67.70
66373;SHT30;53168;51.146;17.120;2024-01-27T07:50:21;4.95;67.74
66373;SHT30;53168;51.146;17.120;2024-01-27T07:52:56;4.97;67.75
66373;SHT30;53168;51.146;17.120;2024-01-27T07:55:33;5.00;67.70
66373;SHT30;53168;51.146;17.120;2024-01-27T07:58:07;5.03;67.62
66373;SHT30;53168;51.146;17.120;2024-01-27T08:00:48;5.03;67.60
66373;SHT30;53168;51.146;17.120;2024-01-27T08:03:23;5.03;67.55
66373;SHT30;53168;51.146;17.120;2024-01-27T08:06:03;5.04;67.61
66373;SHT30;53168;51.146;17.120;2024-01-27T08:08:41;5.06;67.64
66373;SHT30;53168;51.146;17.120;2024-01-27T08:11:17;5.07;67.69
66373;SHT30;53168;51.146;17.120;2024-01-27T08:13:52;5.08;67.68
66373;SHT30;53168;51.146;17.120;2024-01-27T08:16:29;5.11;67.59
66373;SHT30;53168;51.146;17.120;2024-01-27T08:19:08;5.13;67.57
66373;SHT30;53168;51.146;17.120;2024-01-27T08:21:43;5.18;67.57
66373;SHT30;53168;51.146;17.120;2024-01-27T08:24:18;5.22;67.51
66373;SHT30;53168;51.146;17.120;2024-01-27T08:26:53;5.23;67.45
66373;SHT30;53168;51.146;17.120;2024-01-27T08:29:28;5.25;67.40
66373;SHT30;53168;51.146;17.120;2024-01-27T08:32:05;5.25;67.40
66373;SHT30;53168;51.146;17.120;2024-01-27T08:34:41;5.26;67.48
66373;SHT30;53168;51.146;17.120;2024-01-27T08:37:20;5.26;67.43
66373;SHT30;53168;51.146;17.120;2024-01-27T08:39:54;5.26;67.34
66373;SHT30;53168;51.146;17.120;2024-01-27T08:42:31;5.26;67.35
66373;SHT30;53168;51.146;17.120;2024-01-27T08:45:09;5.27;67.36
66373;SHT30;53168;51.146;17.120;2024-01-27T08:47:44;5.30;67.37
66373;SHT30;53168;51.146;17.120;2024-01-27T08:50:18;5.32;67.33
66373;SHT30;53168;51.146;17.120;2024-01-27T08:52:53;5.34;67.18
66373;SHT30;53168;51.146;17.120;2024-01-27T08:55:28;5.38;67.15
66373;SHT30;53168;51.146;17.120;2024-01-27T08:58:02;5.41;67.14
66373;SHT30;53168;51.146;17.120;2024-01-27T09:00:37;5.42;67.17
66373;SHT30;53168;51.146;17.120;2024-01-27T09:03:14;5.43;67.08
66373;SHT30;53168;51.146;17.120;2024-01-27T09:05:51;5.45;67.13
66373;SHT30;53168;51.146;17.120;2024-01-27T09:08:26;5.45;67.16
66373;SHT30;53168;51.146;17.120;2024-01-27T09:11:02;5.48;67.01
66373;SHT30;53168;51.146;17.120;2024-01-27T09:13:41;5.53;66.93
66373;SHT30;53168;51.146;17.120;2024-01-27T09:16:21;5.56;66.93
66373;SHT30;53168;51.146;17.120;2024-01-27T09:18:55;5.55;66.89
66373;SHT30;53168;51.146;17.120;2024-01-27T09:21:30;5.58;66.93
66373;SHT30;53168;51.146;17.120;2024-01-27T09:24:06;5.60;66.87
66373;SHT30;53168;51.146;17.120;2024-01-27T09:26:45;5.64;66.85
66373;SHT30;53168;51.146;17.120;2024-01-27T09:29:36;5.64;66.74
66373;SHT30;53168;51.146;17.120;2024-01-27T09:32:11;5.64;66.71
66373;SHT30;53168;51.146;17.120;2024-01-27T09:34:46;5.64;66.70
66373;SHT30;53168;51.146;17.120;2024-01-27T09:37:28;5.65;66.70
66373;SHT30;53168;51.146;17.120;2024-01-27T09:40:04;5.68;66.68
66373;SHT30;53168;51.146;17.120;2024-01-27T09:42:49;5.70;66.57
66373;SHT30;53168;51.146;17.120;2024-01-27T09:45:26;5.69;66.64
66373;SHT30;53168;51.146;17.120;2024-01-27T09:48:05;5.70;66.56
66373;SHT30;53168;51.146;17.120;2024-01-27T09:50:45;5.71;66.55
66373;SHT30;53168;51.146;17.120;2024-01-27T09:53:23;5.71;66.63
66373;SHT30;53168;51.146;17.120;2024-01-27T09:55:59;5.72;66.63
66373;SHT30;53168;51.146;17.120;2024-01-27T09:59:52;5.75;66.54
66373;SHT30;53168;51.146;17.120;2024-01-27T10:03:53;5.78;66.51
66373;SHT30;53168;51.146;17.120;2024-01-27T10:06:29;5.81;66.56
66373;SHT30;53168;51.146;17.120;2024-01-27T10:09:04;5.82;66.45
66373;SHT30;53168;51.146;17.120;2024-01-27T10:11:45;5.80;66.42
66373;SHT30;53168;51.146;17.120;2024-01-27T10:14:22;5.81;66.56
66373;SHT30;53168;51.146;17.120;2024-01-27T10:16:56;5.86;66.53
66373;SHT30;53168;51.146;17.120;2024-01-27T10:19:31;5.99;66.43
66373;SHT30;53168;51.146;17.120;2024-01-27T10:22:06;6.11;66.35
66373;SHT30;53168;51.146;17.120;2024-01-27T10:24:40;6.18;66.24
66373;SHT30;53168;51.146;17.120;2024-01-27T10:27:16;6.17;66.05
66373;SHT30;53168;51.146;17.120;2024-01-27T10:29:57;6.16;66.00
66373;SHT30;53168;51.146;17.120;2024-01-27T10:32:37;6.23;65.96
66373;SHT30;53168;51.146;17.120;2024-01-27T10:35:12;6.36;65.73
66373;SHT30;53168;51.146;17.120;2024-01-27T10:37:50;6.46;65.56
66373;SHT30;53168;51.146;17.120;2024-01-27T10:40:34;6.50;65.56
66373;SHT30;53168;51.146;17.120;2024-01-27T10:43:19;6.52;65.45
66373;SHT30;53168;51.146;17.120;2024-01-27T10:45:54;6.53;65.24
66373;SHT30;53168;51.146;17.120;2024-01-27T10:48:30;6.53;65.32
66373;SHT30;53168;51.146;17.120;2024-01-27T10:51:09;6.53;65.45
66373;SHT30;53168;51.146;17.120;2024-01-27T10:53:49;6.54;65.41
66373;SHT30;53168;51.146;17.120;2024-01-27T10:56:29;6.52;65.29
66373;SHT30;53168;51.146;17.120;2024-01-27T10:59:06;6.53;65.24
66373;SHT30;53168;51.146;17.120;2024-01-27T11:01:51;6.60;65.23
66373;SHT30;53168;51.146;17.120;2024-01-27T11:04:29;6.70;64.91
66373;SHT30;53168;51.146;17.120;2024-01-27T11:07:10;6.80;64.83
66373;SHT30;53168;51.146;17.120;2024-01-27T11:09:46;6.84;64.82
66373;SHT30;53168;51.146;17.120;2024-01-27T11:12:24;6.86;64.70
66373;SHT30;53168;51.146;17.120;2024-01-27T11:15:00;6.83;64.48
66373;SHT30;53168;51.146;17.120;2024-01-27T11:17:41;6.79;64.43
66373;SHT30;53168;51.146;17.120;2024-01-27T11:20:19;6.77;64.67
66373;SHT30;53168;51.146;17.120;2024-01-27T11:22:55;6.78;64.70
66373;SHT30;53168;51.146;17.120;2024-01-27T11:25:40;6.83;64.64
66373;SHT30;53168;51.146;17.120;2024-01-27T11:28:17;6.91;64.69
66373;SHT30;53168;51.146;17.120;2024-01-27T11:30:58;7.03;64.51
66373;SHT30;53168;51.146;17.120;2024-01-27T11:33:46;7.09;64.43
66373;SHT30;53168;51.146;17.120;2024-01-27T11:36:26;7.08;64.36
66373;SHT30;53168;51.146;17.120;2024-01-27T11:52:16;7.86;62.55
66373;SHT30;53168;51.146;17.120;2024-01-27T11:54:53;8.06;62.54
66373;SHT30;53168;51.146;17.120;2024-01-27T11:57:25;8.17;62.17
66373;SHT30;53168;51.146;17.120;2024-01-27T11:59:57;8.57;61.60
66373;SHT30;53168;51.146;17.120;2024-01-27T12:02:28;8.74;60.73
66373;SHT30;53168;51.146;17.120;2024-01-27T12:04:59;8.77;60.84
66373;SHT30;53168;51.146;17.120;2024-01-27T12:07:30;9.02;60.41
66373;SHT30;53168;51.146;17.120;2024-01-27T12:10:02;9.07;60.08
66373;SHT30;53168;51.146;17.120;2024-01-27T12:12:33;8.95;59.93
66373;SHT30;53168;51.146;17.120;2024-01-27T12:15:06;8.80;60.37
66373;SHT30;53168;51.146;17.120;2024-01-27T12:17:37;8.95;60.10
66373;SHT30;53168;51.146;17.120;2024-01-27T12:20:15;9.02;59.51
66373;SHT30;53168;51.146;17.120;2024-01-27T12:22:46;8.99;59.29
66373;SHT30;53168;51.146;17.120;2024-01-27T12:25:20;9.39;59.18
66373;SHT30;53168;51.146;17.120;2024-01-27T12:27:51;9.50;58.95
66373;SHT30;53168;51.146;17.120;2024-01-27T12:30:25;9.20;59.30
66373;SHT30;53168;51.146;17.120;2024-01-27T12:32:56;9.01;59.32
66373;SHT30;53168;51.146;17.120;2024-01-27T12:35:28;8.91;60.09
66373;SHT30;53168;51.146;17.120;2024-01-27T12:38:01;8.77;60.03
66373;SHT30;53168;51.146;17.120;2024-01-27T12:40:35;8.59;59.78
66373;SHT30;53168;51.146;17.120;2024-01-27T12:43:07;8.37;59.99
66373;SHT30;53168;51.146;17.120;2024-01-27T12:45:38;8.22;60.05
66373;SHT30;53168;51.146;17.120;2024-01-27T12:48:09;8.19;60.35
66373;SHT30;53168;51.146;17.120;2024-01-27T12:50:44;8.18;60.20
66373;SHT30;53168;51.146;17.120;2024-01-27T12:53:15;8.16;60.22
66373;SHT30;53168;51.146;17.120;2024-01-27T12:55:46;8.19;60.22
66373;SHT30;53168;51.146;17.120;2024-01-27T12:58:25;8.22;60.39
66373;SHT30;53168;51.146;17.120;2024-01-27T13:00:56;8.33;60.20
66373;SHT30;53168;51.146;17.120;2024-01-27T13:03:27;8.45;60.28
66373;SHT30;53168;51.146;17.120;2024-01-27T13:05:58;8.53;60.27
66373;SHT30;53168;51.146;17.120;2024-01-27T13:08:30;8.47;60.49
66373;SHT30;53168;51.146;17.120;2024-01-27T13:11:01;8.33;60.48
66373;SHT30;53168;51.146;17.120;2024-01-27T13:13:36;8.21;60.71
66373;SHT30;53168;51.146;17.120;2024-01-27T13:16:07;8.13;60.87
66373;SHT30;53168;51.146;17.120;2024-01-27T13:18:38;8.09;60.85
66373;SHT30;53168;51.146;17.120;2024-01-27T13:21:09;8.08;61.11
66373;SHT30;53168;51.146;17.120;2024-01-27T13:23:40;8.10;61.04
66373;SHT30;53168;51.146;17.120;2024-01-27T13:26:12;8.16;61.01
66373;SHT30;53168;51.146;17.120;2024-01-27T13:28:47;8.14;61.14
66373;SHT30;53168;51.146;17.120;2024-01-27T13:31:19;8.05;61.30
66373;SHT30;53168;51.146;17.120;2024-01-27T13:33:50;8.03;61.44
66373;SHT30;53168;51.146;17.120;2024-01-27T13:36:22;7.95;61.41
66373;SHT30;53168;51.146;17.120;2024-01-27T13:38:58;7.84;61.55
66373;SHT30;53168;51.146;17.120;2024-01-27T13:41:31;7.82;61.65
66373;SHT30;53168;51.146;17.120;2024-01-27T13:44:03;7.84;61.57
66373;SHT30;53168;51.146;17.120;2024-01-27T13:46:34;7.89;61.59
66373;SHT30;53168;51.146;17.120;2024-01-27T13:49:08;7.84;61.59
66373;SHT30;53168;51.146;17.120;2024-01-27T13:51:45;7.81;61.71
66373;SHT30;53168;51.146;17.120;2024-01-27T13:54:22;7.78;61.91
66373;SHT30;53168;51.146;17.120;2024-01-27T13:57:07;7.76;62.05
66373;SHT30;53168;51.146;17.120;2024-01-27T13:59:54;7.71;62.15
66373;SHT30;53168;51.146;17.120;2024-01-27T14:02:41;7.66;62.23
66373;SHT30;53168;51.146;17.120;2024-01-27T14:05:20;7.61;62.20
66373;SHT30;53168;51.146;17.120;2024-01-27T14:07:58;7.59;62.32
66373;SHT30;53168;51.146;17.120;2024-01-27T14:14:06;7.52;62.71
66373;SHT30;53168;51.146;17.120;2024-01-27T14:16:39;7.49;62.80
66373;SHT30;53168;51.146;17.120;2024-01-27T14:19:13;7.47;62.91
66373;SHT30;53168;51.146;17.120;2024-01-27T14:21:45;7.45;62.97
66373;SHT30;53168;51.146;17.120;2024-01-27T14:24:16;7.42;63.07
66373;SHT30;53168;51.146;17.120;2024-01-27T14:26:46;7.39;63.09
66373;SHT30;53168;51.146;17.120;2024-01-27T14:29:20;7.35;63.11
66373;SHT30;53168;51.146;17.120;2024-01-27T14:31:51;7.33;63.16
66373;SHT30;53168;51.146;17.120;2024-01-27T14:34:25;7.30;63.31
66373;SHT30;53168;51.146;17.120;2024-01-27T14:36:56;7.26;63.36
66373;SHT30;53168;51.146;17.120;2024-01-27T14:39:31;7.26;63.45
66373;SHT30;53168;51.146;17.120;2024-01-27T14:42:03;7.25;63.51
66373;SHT30;53168;51.146;17.120;2024-01-27T14:44:36;7.24;63.58
66373;SHT30;53168;51.146;17.120;2024-01-27T14:47:09;7.21;63.68
66373;SHT30;53168;51.146;17.120;2024-01-27T14:49:48;7.19;63.74
66373;SHT30;53168;51.146;17.120;2024-01-27T14:52:19;7.16;63.90
66373;SHT30;53168;51.146;17.120;2024-01-27T14:54:50;7.14;63.98
66373;SHT30;53168;51.146;17.120;2024-01-27T14:57:21;7.12;64.08
66373;SHT30;53168;51.146;17.120;2024-01-27T14:59:59;7.09;64.19
66373;SHT30;53168;51.146;17.120;2024-01-27T15:02:30;7.05;64.33
66373;SHT30;53168;51.146;17.120;2024-01-27T15:05:01;7.02;64.44
66373;SHT30;53168;51.146;17.120;2024-01-27T15:07:34;7.01;64.52
66373;SHT30;53168;51.146;17.120;2024-01-27T15:10:08;7.00;64.63
66373;SHT30;53168;51.146;17.120;2024-01-27T15:12:40;6.98;64.78
66373;SHT30;53168;51.146;17.120;2024-01-27T15:15:12;6.96;64.80
66373;SHT30;53168;51.146;17.120;2024-01-27T15:17:47;6.95;64.86
66373;SHT30;53168;51.146;17.120;2024-01-27T15:20:25;6.92;64.96
66373;SHT30;53168;51.146;17.120;2024-01-27T15:23:01;6.89;65.09
66373;SHT30;53168;51.146;17.120;2024-01-27T15:25:37;6.86;65.16
66373;SHT30;53168;51.146;17.120;2024-01-27T15:28:13;6.83;65.22
66373;SHT30;53168;51.146;17.120;2024-01-27T15:30:48;6.80;65.34
66373;SHT30;53168;51.146;17.120;2024-01-27T15:33:23;6.77;65.39
66373;SHT30;53168;51.146;17.120;2024-01-27T15:35:58;6.73;65.56
66373;SHT30;53168;51.146;17.120;2024-01-27T15:38:35;6.70;65.61
66373;SHT30;53168;51.146;17.120;2024-01-27T15:41:10;6.69;65.69
66373;SHT30;53168;51.146;17.120;2024-01-27T15:43:53;6.67;65.76
66373;SHT30;53168;51.146;17.120;2024-01-27T15:46:29;6.66;65.88
66373;SHT30;53168;51.146;17.120;2024-01-27T15:49:05;6.64;65.92
66373;SHT30;53168;51.146;17.120;2024-01-27T15:51:48;6.61;66.09
66373;SHT30;53168;51.146;17.120;2024-01-27T15:54:25;6.59;66.12
66373;SHT30;53168;51.146;17.120;2024-01-27T15:57:07;6.57;66.27
66373;SHT30;53168;51.146;17.120;2024-01-27T15:59:44;6.55;66.44
66373;SHT30;53168;51.146;17.120;2024-01-27T16:02:24;6.53;66.58
66373;SHT30;53168;51.146;17.120;2024-01-27T16:04:59;6.50;66.76
66373;SHT30;53168;51.146;17.120;2024-01-27T16:07:41;6.47;66.89
66373;SHT30;53168;51.146;17.120;2024-01-27T16:10:17;6.44;67.09
66373;SHT30;53168;51.146;17.120;2024-01-27T16:12:53;6.42;67.18
66373;SHT30;53168;51.146;17.120;2024-01-27T16:15:29;6.39;67.41
66373;SHT30;53168;51.146;17.120;2024-01-27T16:18:05;6.36;67.49
66373;SHT30;53168;51.146;17.120;2024-01-27T16:20:41;6.33;67.64
66373;SHT30;53168;51.146;17.120;2024-01-27T16:23:21;6.30;67.76
66373;SHT30;53168;51.146;17.120;2024-01-27T16:25:55;6.25;68.03
66373;SHT30;53168;51.146;17.120;2024-01-27T16:28:30;6.23;68.12
66373;SHT30;53168;51.146;17.120;2024-01-27T16:31:06;6.21;68.22
66373;SHT30;53168;51.146;17.120;2024-01-27T16:33:41;6.20;68.27
66373;SHT30;53168;51.146;17.120;2024-01-27T16:36:15;6.20;68.38
66373;SHT30;53168;51.146;17.120;2024-01-27T16:38:50;6.20;68.55
66373;SHT30;53168;51.146;17.120;2024-01-27T16:54:16;6.22;68.64
66373;SHT30;53168;51.146;17.120;2024-01-27T16:56:52;6.21;68.62
66373;SHT30;53168;51.146;17.120;2024-01-27T16:59:28;6.19;68.75